sensor_id;sensor_type;location;lat;lon;timestamp;P1;durP1;ratioP1;P2;durP2;ratioP2
72951;SDS011;61102;51.956;5.878;2022-11-11T00:02:24;6.85;;;1.75;;
72951;SDS011;61102;51.956;5.878;2022-11-11T00:05:08;11.75;;;2.30;;
72951;SDS011;61102;51.956;5.878;2022-11-11T00:07:53;7.88;;;1.80;;
72951;SDS011;61102;51.956;5.878;2022-11-11T00:10:42;5.65;;;1.80;;
72951;SDS011;61102;51.956;5.878;2022-11-11T00:13:27;8.60;;;1.85;;
72951;SDS011;61102;51.956;5.878;2022-11-11T00:16:14;7.13;;;1.83;;
72951;SDS011;61102;51.956;5.878;2022-11-11T00:19:02;7.47;;;1.70;;
72951;SDS011;61102;51.956;5.878;2022-11-11T00:22:19;6.18;;;1.40;;
72951;SDS011;61102;51.956;5.878;2022-11-11T00:25:23;5.38;;;1.50;;
72951;SDS011;61102;51.956;5.878;2022-11-11T00:28:08;6.18;;;1.58;;
72951;SDS011;61102;51.956;5.878;2022-11-11T00:30:59;5.70;;;1.40;;
72951;SDS011;61102;51.956;5.878;2022-11-11T00:33:52;8.25;;;1.80;;
72951;SDS011;61102;51.956;5.878;2022-11-11T00:36:37;5.30;;;1.55;;
72951;SDS011;61102;51.956;5.878;2022-11-11T00:39:22;6.10;;;1.42;;
72951;SDS011;61102;51.956;5.878;2022-11-11T00:42:06;4.57;;;1.30;;
72951;SDS011;61102;51.956;5.878;2022-11-11T00:44:50;5.43;;;1.55;;
72951;SDS011;61102;51.956;5.878;2022-11-11T00:47:35;5.03;;;1.50;;
72951;SDS011;61102;51.956;5.878;2022-11-11T00:50:39;7.70;;;2.40;;
72951;SDS011;61102;51.956;5.878;2022-11-11T00:53:41;6.18;;;1.65;;
72951;SDS011;61102;51.956;5.878;2022-11-11T00:56:26;5.18;;;1.63;;
72951;SDS011;61102;51.956;5.878;2022-11-11T00:59:10;6.25;;;1.80;;
72951;SDS011;61102;51.956;5.878;2022-11-11T01:01:54;8.63;;;2.53;;
72951;SDS011;61102;51.956;5.878;2022-11-11T01:04:39;6.25;;;1.63;;
72951;SDS011;61102;51.956;5.878;2022-11-11T01:07:23;7.20;;;2.38;;
72951;SDS011;61102;51.956;5.878;2022-11-11T01:10:08;9.82;;;2.40;;
72951;SDS011;61102;51.956;5.878;2022-11-11T01:12:53;6.13;;;1.95;;
72951;SDS011;61102;51.956;5.878;2022-11-11T01:15:59;7.43;;;2.58;;
72951;SDS011;61102;51.956;5.878;2022-11-11T01:18:46;5.88;;;2.03;;
72951;SDS011;61102;51.956;5.878;2022-11-11T01:21:31;8.05;;;2.00;;
72951;SDS011;61102;51.956;5.878;2022-11-11T01:24:16;7.93;;;2.85;;
72951;SDS011;61102;51.956;5.878;2022-11-11T01:27:00;8.02;;;2.65;;
72951;SDS011;61102;51.956;5.878;2022-11-11T01:29:44;7.97;;;3.00;;
72951;SDS011;61102;51.956;5.878;2022-11-11T01:32:30;9.15;;;3.50;;
72951;SDS011;61102;51.956;5.878;2022-11-11T01:35:14;9.27;;;2.78;;
72951;SDS011;61102;51.956;5.878;2022-11-11T01:37:59;7.65;;;2.40;;
72951;SDS011;61102;51.956;5.878;2022-11-11T01:40:44;8.73;;;2.50;;
72951;SDS011;61102;51.956;5.878;2022-11-11T01:43:30;7.53;;;2.70;;
72951;SDS011;61102;51.956;5.878;2022-11-11T01:46:29;6.45;;;2.40;;
72951;SDS011;61102;51.956;5.878;2022-11-11T01:49:28;9.48;;;3.65;;
72951;SDS011;61102;51.956;5.878;2022-11-11T01:52:25;7.43;;;2.83;;
72951;SDS011;61102;51.956;5.878;2022-11-11T01:55:14;9.70;;;3.17;;
72951;SDS011;61102;51.956;5.878;2022-11-11T01:58:08;7.82;;;2.45;;
72951;SDS011;61102;51.956;5.878;2022-11-11T02:00:57;7.75;;;2.70;;
72951;SDS011;61102;51.956;5.878;2022-11-11T02:03:43;8.88;;;3.40;;
72951;SDS011;61102;51.956;5.878;2022-11-11T02:06:50;7.75;;;2.80;;
72951;SDS011;61102;51.956;5.878;2022-11-11T02:09:38;9.95;;;3.53;;
72951;SDS011;61102;51.956;5.878;2022-11-11T02:12:30;8.57;;;3.05;;
72951;SDS011;61102;51.956;5.878;2022-11-11T02:15:33;9.65;;;3.47;;
72951;SDS011;61102;51.956;5.878;2022-11-11T02:18:19;8.88;;;3.10;;
72951;SDS011;61102;51.956;5.878;2022-11-11T02:21:03;8.27;;;2.97;;
72951;SDS011;61102;51.956;5.878;2022-11-11T02:24:07;8.70;;;3.30;;
72951;SDS011;61102;51.956;5.878;2022-11-11T02:26:55;11.60;;;4.18;;
72951;SDS011;61102;51.956;5.878;2022-11-11T02:29:41;9.63;;;4.32;;
72951;SDS011;61102;51.956;5.878;2022-11-11T02:32:29;9.60;;;4.03;;
72951;SDS011;61102;51.956;5.878;2022-11-11T02:35:15;9.55;;;3.35;;
72951;SDS011;61102;51.956;5.878;2022-11-11T02:38:05;10.77;;;3.75;;
72951;SDS011;61102;51.956;5.878;2022-11-11T02:40:57;9.77;;;3.53;;
72951;SDS011;61102;51.956;5.878;2022-11-11T02:44:00;9.98;;;3.55;;
72951;SDS011;61102;51.956;5.878;2022-11-11T02:46:45;9.30;;;3.00;;
72951;SDS011;61102;51.956;5.878;2022-11-11T02:49:30;8.93;;;3.20;;
72951;SDS011;61102;51.956;5.878;2022-11-11T02:52:15;9.75;;;3.20;;
72951;SDS011;61102;51.956;5.878;2022-11-11T02:55:00;9.07;;;2.72;;
72951;SDS011;61102;51.956;5.878;2022-11-11T02:57:45;11.30;;;3.70;;
72951;SDS011;61102;51.956;5.878;2022-11-11T03:00:29;7.70;;;2.60;;
72951;SDS011;61102;51.956;5.878;2022-11-11T03:03:14;7.68;;;2.70;;
72951;SDS011;61102;51.956;5.878;2022-11-11T03:05:58;8.82;;;2.95;;
72951;SDS011;61102;51.956;5.878;2022-11-11T03:08:42;8.63;;;3.38;;
72951;SDS011;61102;51.956;5.878;2022-11-11T03:11:27;6.68;;;2.50;;
72951;SDS011;61102;51.956;5.878;2022-11-11T03:14:12;10.00;;;3.33;;
72951;SDS011;61102;51.956;5.878;2022-11-11T03:16:57;8.63;;;3.28;;
72951;SDS011;61102;51.956;5.878;2022-11-11T03:20:00;9.15;;;3.45;;
72951;SDS011;61102;51.956;5.878;2022-11-11T03:23:08;7.95;;;2.78;;
72951;SDS011;61102;51.956;5.878;2022-11-11T03:25:55;9.40;;;3.65;;
72951;SDS011;61102;51.956;5.878;2022-11-11T03:28:39;7.20;;;2.50;;
72951;SDS011;61102;51.956;5.878;2022-11-11T03:31:24;9.07;;;2.92;;
72951;SDS011;61102;51.956;5.878;2022-11-11T03:34:08;7.03;;;2.50;;
72951;SDS011;61102;51.956;5.878;2022-11-11T03:37:02;8.88;;;3.20;;
72951;SDS011;61102;51.956;5.878;2022-11-11T03:40:10;8.25;;;3.03;;
72951;SDS011;61102;51.956;5.878;2022-11-11T03:42:55;11.13;;;3.75;;
72951;SDS011;61102;51.956;5.878;2022-11-11T03:45:40;7.13;;;2.60;;
72951;SDS011;61102;51.956;5.878;2022-11-11T03:48:26;8.73;;;2.45;;
72951;SDS011;61102;51.956;5.878;2022-11-11T03:51:12;8.52;;;2.78;;
72951;SDS011;61102;51.956;5.878;2022-11-11T03:53:57;6.93;;;2.25;;
72951;SDS011;61102;51.956;5.878;2022-11-11T03:56:41;6.38;;;2.03;;
72951;SDS011;61102;51.956;5.878;2022-11-11T03:59:26;10.52;;;2.90;;
72951;SDS011;61102;51.956;5.878;2022-11-11T04:02:13;8.98;;;2.83;;
72951;SDS011;61102;51.956;5.878;2022-11-11T04:05:17;8.75;;;3.00;;
72951;SDS011;61102;51.956;5.878;2022-11-11T04:08:20;6.97;;;2.40;;
72951;SDS011;61102;51.956;5.878;2022-11-11T04:11:28;9.73;;;2.92;;
72951;SDS011;61102;51.956;5.878;2022-11-11T04:14:16;7.80;;;2.50;;
72951;SDS011;61102;51.956;5.878;2022-11-11T04:17:19;7.07;;;2.70;;
72951;SDS011;61102;51.956;5.878;2022-11-11T04:20:04;8.77;;;3.05;;
72951;SDS011;61102;51.956;5.878;2022-11-11T04:23:08;7.68;;;2.60;;
72951;SDS011;61102;51.956;5.878;2022-11-11T04:25:52;7.13;;;2.20;;
72951;SDS011;61102;51.956;5.878;2022-11-11T04:28:38;7.28;;;2.30;;
72951;SDS011;61102;51.956;5.878;2022-11-11T04:31:41;6.88;;;1.95;;
72951;SDS011;61102;51.956;5.878;2022-11-11T04:34:54;6.40;;;1.90;;
72951;SDS011;61102;51.956;5.878;2022-11-11T04:37:46;7.45;;;2.60;;
72951;SDS011;61102;51.956;5.878;2022-11-11T04:40:35;6.80;;;2.38;;
72951;SDS011;61102;51.956;5.878;2022-11-11T04:43:38;6.88;;;2.50;;
72951;SDS011;61102;51.956;5.878;2022-11-11T04:46:42;7.05;;;2.28;;
72951;SDS011;61102;51.956;5.878;2022-11-11T04:49:27;8.15;;;2.33;;
72951;SDS011;61102;51.956;5.878;2022-11-11T04:52:11;8.93;;;2.28;;
72951;SDS011;61102;51.956;5.878;2022-11-11T04:55:11;6.55;;;2.47;;
72951;SDS011;61102;51.956;5.878;2022-11-11T04:58:16;8.15;;;2.85;;
72951;SDS011;61102;51.956;5.878;2022-11-11T05:01:05;7.35;;;2.35;;
72951;SDS011;61102;51.956;5.878;2022-11-11T05:03:49;6.85;;;2.17;;
72951;SDS011;61102;51.956;5.878;2022-11-11T05:06:34;5.65;;;2.05;;
72951;SDS011;61102;51.956;5.878;2022-11-11T05:09:38;7.32;;;2.30;;
72951;SDS011;61102;51.956;5.878;2022-11-11T05:12:23;9.73;;;2.92;;
72951;SDS011;61102;51.956;5.878;2022-11-11T05:15:07;7.53;;;2.65;;
72951;SDS011;61102;51.956;5.878;2022-11-11T05:18:11;7.07;;;2.30;;
72951;SDS011;61102;51.956;5.878;2022-11-11T05:21:18;6.57;;;2.10;;
72951;SDS011;61102;51.956;5.878;2022-11-11T05:24:06;6.47;;;2.00;;
72951;SDS011;61102;51.956;5.878;2022-11-11T05:27:09;7.50;;;2.22;;
72951;SDS011;61102;51.956;5.878;2022-11-11T05:29:54;8.60;;;2.65;;
72951;SDS011;61102;51.956;5.878;2022-11-11T05:32:39;8.68;;;2.90;;
72951;SDS011;61102;51.956;5.878;2022-11-11T05:35:24;9.45;;;3.50;;
72951;SDS011;61102;51.956;5.878;2022-11-11T05:38:08;7.65;;;3.25;;
72951;SDS011;61102;51.956;5.878;2022-11-11T05:41:20;5.78;;;1.92;;
72951;SDS011;61102;51.956;5.878;2022-11-11T05:44:05;8.23;;;2.55;;
72951;SDS011;61102;51.956;5.878;2022-11-11T05:46:49;8.68;;;2.70;;
72951;SDS011;61102;51.956;5.878;2022-11-11T05:49:34;8.30;;;2.47;;
72951;SDS011;61102;51.956;5.878;2022-11-11T05:52:18;7.53;;;2.58;;
72951;SDS011;61102;51.956;5.878;2022-11-11T05:55:02;9.52;;;3.30;;
72951;SDS011;61102;51.956;5.878;2022-11-11T05:57:47;7.82;;;2.78;;
72951;SDS011;61102;51.956;5.878;2022-11-11T06:00:32;6.28;;;2.35;;
72951;SDS011;61102;51.956;5.878;2022-11-11T06:03:32;7.38;;;2.28;;
72951;SDS011;61102;51.956;5.878;2022-11-11T06:06:17;6.90;;;2.20;;
72951;SDS011;61102;51.956;5.878;2022-11-11T06:12:30;7.45;;;2.58;;
72951;SDS011;61102;51.956;5.878;2022-11-11T06:15:38;9.82;;;3.10;;
72951;SDS011;61102;51.956;5.878;2022-11-11T06:18:24;9.80;;;3.22;;
72951;SDS011;61102;51.956;5.878;2022-11-11T06:21:08;7.97;;;2.72;;
72951;SDS011;61102;51.956;5.878;2022-11-11T06:23:53;8.68;;;3.00;;
72951;SDS011;61102;51.956;5.878;2022-11-11T06:26:37;9.43;;;3.05;;
72951;SDS011;61102;51.956;5.878;2022-11-11T06:29:22;8.18;;;2.25;;
72951;SDS011;61102;51.956;5.878;2022-11-11T06:32:06;9.15;;;2.92;;
72951;SDS011;61102;51.956;5.878;2022-11-11T06:34:50;7.25;;;2.17;;
72951;SDS011;61102;51.956;5.878;2022-11-11T06:37:35;7.75;;;2.92;;
72951;SDS011;61102;51.956;5.878;2022-11-11T06:40:19;8.27;;;3.03;;
72951;SDS011;61102;51.956;5.878;2022-11-11T06:49:30;6.32;;;1.92;;
72951;SDS011;61102;51.956;5.878;2022-11-11T06:52:14;5.57;;;1.75;;
72951;SDS011;61102;51.956;5.878;2022-11-11T06:55:00;6.53;;;2.40;;
72951;SDS011;61102;51.956;5.878;2022-11-11T06:57:44;9.15;;;3.20;;
72951;SDS011;61102;51.956;5.878;2022-11-11T07:00:28;9.80;;;3.50;;
72951;SDS011;61102;51.956;5.878;2022-11-11T07:03:14;10.30;;;3.53;;
72951;SDS011;61102;51.956;5.878;2022-11-11T07:06:00;8.70;;;3.15;;
72951;SDS011;61102;51.956;5.878;2022-11-11T07:08:45;6.57;;;2.65;;
72951;SDS011;61102;51.956;5.878;2022-11-11T07:11:29;7.93;;;3.45;;
72951;SDS011;61102;51.956;5.878;2022-11-11T07:14:14;9.80;;;2.70;;
72951;SDS011;61102;51.956;5.878;2022-11-11T07:16:58;8.45;;;3.33;;
72951;SDS011;61102;51.956;5.878;2022-11-11T07:19:43;7.40;;;2.22;;
72951;SDS011;61102;51.956;5.878;2022-11-11T07:22:28;7.82;;;3.03;;
72951;SDS011;61102;51.956;5.878;2022-11-11T07:25:12;7.32;;;2.60;;
72951;SDS011;61102;51.956;5.878;2022-11-11T07:27:56;8.35;;;3.22;;
72951;SDS011;61102;51.956;5.878;2022-11-11T07:30:41;8.43;;;3.47;;
72951;SDS011;61102;51.956;5.878;2022-11-11T07:33:26;11.35;;;3.75;;
72951;SDS011;61102;51.956;5.878;2022-11-11T07:36:10;7.93;;;3.45;;
72951;SDS011;61102;51.956;5.878;2022-11-11T07:38:55;10.95;;;4.07;;
72951;SDS011;61102;51.956;5.878;2022-11-11T07:41:39;7.72;;;3.10;;
72951;SDS011;61102;51.956;5.878;2022-11-11T07:44:24;8.73;;;3.75;;
72951;SDS011;61102;51.956;5.878;2022-11-11T07:47:08;10.15;;;4.30;;
72951;SDS011;61102;51.956;5.878;2022-11-11T07:49:53;10.68;;;3.78;;
72951;SDS011;61102;51.956;5.878;2022-11-11T07:52:37;11.15;;;4.68;;
72951;SDS011;61102;51.956;5.878;2022-11-11T07:55:21;9.55;;;3.30;;
72951;SDS011;61102;51.956;5.878;2022-11-11T07:58:06;10.40;;;4.20;;
72951;SDS011;61102;51.956;5.878;2022-11-11T08:00:51;11.05;;;3.70;;
72951;SDS011;61102;51.956;5.878;2022-11-11T08:03:36;8.00;;;3.30;;
72951;SDS011;61102;51.956;5.878;2022-11-11T08:06:32;10.50;;;3.53;;
72951;SDS011;61102;51.956;5.878;2022-11-11T08:09:17;13.45;;;6.43;;
72951;SDS011;61102;51.956;5.878;2022-11-11T08:12:02;10.52;;;4.13;;
72951;SDS011;61102;51.956;5.878;2022-11-11T08:15:05;8.98;;;3.10;;
72951;SDS011;61102;51.956;5.878;2022-11-11T08:17:50;9.55;;;3.60;;
72951;SDS011;61102;51.956;5.878;2022-11-11T08:20:35;8.25;;;3.42;;
72951;SDS011;61102;51.956;5.878;2022-11-11T08:23:20;8.57;;;3.35;;
72951;SDS011;61102;51.956;5.878;2022-11-11T08:26:15;13.23;;;5.80;;
72951;SDS011;61102;51.956;5.878;2022-11-11T08:28:59;8.10;;;2.95;;
72951;SDS011;61102;51.956;5.878;2022-11-11T08:31:44;11.13;;;4.38;;
72951;SDS011;61102;51.956;5.878;2022-11-11T08:34:29;9.82;;;3.63;;
72951;SDS011;61102;51.956;5.878;2022-11-11T08:37:13;7.97;;;3.00;;
72951;SDS011;61102;51.956;5.878;2022-11-11T08:39:58;7.40;;;3.25;;
72951;SDS011;61102;51.956;5.878;2022-11-11T08:42:42;7.38;;;2.80;;
72951;SDS011;61102;51.956;5.878;2022-11-11T08:45:27;8.82;;;3.58;;
72951;SDS011;61102;51.956;5.878;2022-11-11T08:48:12;8.63;;;2.70;;
72951;SDS011;61102;51.956;5.878;2022-11-11T08:50:57;9.02;;;3.00;;
72951;SDS011;61102;51.956;5.878;2022-11-11T08:53:42;8.55;;;2.92;;
72951;SDS011;61102;51.956;5.878;2022-11-11T08:56:27;8.10;;;3.05;;
72951;SDS011;61102;51.956;5.878;2022-11-11T08:59:12;8.20;;;3.00;;
72951;SDS011;61102;51.956;5.878;2022-11-11T09:01:56;9.32;;;3.22;;
72951;SDS011;61102;51.956;5.878;2022-11-11T09:04:40;7.75;;;2.83;;
72951;SDS011;61102;51.956;5.878;2022-11-11T09:07:25;8.15;;;3.13;;
72951;SDS011;61102;51.956;5.878;2022-11-11T09:10:10;9.63;;;3.60;;
72951;SDS011;61102;51.956;5.878;2022-11-11T09:12:56;7.55;;;2.65;;
72951;SDS011;61102;51.956;5.878;2022-11-11T09:15:41;7.75;;;2.85;;
72951;SDS011;61102;51.956;5.878;2022-11-11T09:18:26;9.80;;;3.72;;
72951;SDS011;61102;51.956;5.878;2022-11-11T09:21:10;8.48;;;2.70;;
72951;SDS011;61102;51.956;5.878;2022-11-11T09:23:55;8.32;;;2.97;;
72951;SDS011;61102;51.956;5.878;2022-11-11T09:26:39;10.32;;;3.97;;
72951;SDS011;61102;51.956;5.878;2022-11-11T09:29:24;7.80;;;3.28;;
72951;SDS011;61102;51.956;5.878;2022-11-11T09:32:12;6.90;;;2.47;;
72951;SDS011;61102;51.956;5.878;2022-11-11T09:34:56;7.70;;;2.88;;
72951;SDS011;61102;51.956;5.878;2022-11-11T09:37:41;6.75;;;2.50;;
72951;SDS011;61102;51.956;5.878;2022-11-11T09:40:27;7.15;;;2.17;;
72951;SDS011;61102;51.956;5.878;2022-11-11T09:46:55;8.38;;;3.10;;
72951;SDS011;61102;51.956;5.878;2022-11-11T09:50:00;8.38;;;2.60;;
72951;SDS011;61102;51.956;5.878;2022-11-11T09:52:50;7.35;;;2.60;;
72951;SDS011;61102;51.956;5.878;2022-11-11T09:55:55;8.27;;;2.60;;
72951;SDS011;61102;51.956;5.878;2022-11-11T10:01:39;7.20;;;2.67;;
72951;SDS011;61102;51.956;5.878;2022-11-11T10:05:01;7.70;;;2.58;;
72951;SDS011;61102;51.956;5.878;2022-11-11T10:07:46;7.53;;;2.33;;
72951;SDS011;61102;51.956;5.878;2022-11-11T10:13:37;7.63;;;2.80;;
72951;SDS011;61102;51.956;5.878;2022-11-11T10:20:24;7.78;;;2.60;;
72951;SDS011;61102;51.956;5.878;2022-11-11T10:25:53;7.63;;;2.78;;
72951;SDS011;61102;51.956;5.878;2022-11-11T10:31:26;7.28;;;2.08;;
72951;SDS011;61102;51.956;5.878;2022-11-11T10:34:12;6.80;;;1.90;;
72951;SDS011;61102;51.956;5.878;2022-11-11T10:36:59;5.90;;;2.05;;
72951;SDS011;61102;51.956;5.878;2022-11-11T10:42:48;8.02;;;2.33;;
72951;SDS011;61102;51.956;5.878;2022-11-11T10:45:53;7.15;;;2.17;;
72951;SDS011;61102;51.956;5.878;2022-11-11T10:49:06;5.93;;;1.80;;
72951;SDS011;61102;51.956;5.878;2022-11-11T10:54:56;6.55;;;1.90;;
72951;SDS011;61102;51.956;5.878;2022-11-11T10:58:19;5.07;;;1.33;;
72951;SDS011;61102;51.956;5.878;2022-11-11T11:01:15;5.93;;;2.03;;
72951;SDS011;61102;51.956;5.878;2022-11-11T11:04:08;7.45;;;1.95;;
72951;SDS011;61102;51.956;5.878;2022-11-11T11:06:58;7.90;;;2.50;;
72951;SDS011;61102;51.956;5.878;2022-11-11T11:09:49;6.72;;;1.90;;
72951;SDS011;61102;51.956;5.878;2022-11-11T11:12:42;5.10;;;1.50;;
72951;SDS011;61102;51.956;5.878;2022-11-11T11:15:39;7.88;;;2.10;;
72951;SDS011;61102;51.956;5.878;2022-11-11T11:18:32;5.95;;;2.00;;
72951;SDS011;61102;51.956;5.878;2022-11-11T11:21:17;6.60;;;1.92;;
72951;SDS011;61102;51.956;5.878;2022-11-11T11:24:02;4.85;;;1.35;;
72951;SDS011;61102;51.956;5.878;2022-11-11T11:27:00;5.38;;;1.50;;
72951;SDS011;61102;51.956;5.878;2022-11-11T11:29:50;5.80;;;1.67;;
72951;SDS011;61102;51.956;5.878;2022-11-11T11:32:35;6.10;;;1.98;;
72951;SDS011;61102;51.956;5.878;2022-11-11T11:38:13;6.32;;;1.80;;
72951;SDS011;61102;51.956;5.878;2022-11-11T11:40:58;7.25;;;1.98;;
72951;SDS011;61102;51.956;5.878;2022-11-11T11:43:42;6.30;;;1.73;;
72951;SDS011;61102;51.956;5.878;2022-11-11T11:46:37;6.10;;;1.92;;
72951;SDS011;61102;51.956;5.878;2022-11-11T11:55:24;6.28;;;1.67;;
72951;SDS011;61102;51.956;5.878;2022-11-11T11:58:20;6.47;;;1.50;;
72951;SDS011;61102;51.956;5.878;2022-11-11T12:01:26;6.03;;;1.40;;
72951;SDS011;61102;51.956;5.878;2022-11-11T12:04:32;5.38;;;1.40;;
72951;SDS011;61102;51.956;5.878;2022-11-11T12:10:45;4.20;;;1.20;;
72951;SDS011;61102;51.956;5.878;2022-11-11T12:22:24;5.57;;;1.70;;
72951;SDS011;61102;51.956;5.878;2022-11-11T12:38:37;3.72;;;1.00;;
72951;SDS011;61102;51.956;5.878;2022-11-11T12:54:59;4.22;;;1.10;;
72951;SDS011;61102;51.956;5.878;2022-11-11T13:04:34;3.08;;;1.05;;
72951;SDS011;61102;51.956;5.878;2022-11-11T13:16:26;3.60;;;1.00;;
72951;SDS011;61102;51.956;5.878;2022-11-11T13:19:15;2.38;;;0.80;;
72951;SDS011;61102;51.956;5.878;2022-11-11T13:25:10;4.88;;;1.17;;
72951;SDS011;61102;51.956;5.878;2022-11-11T13:28:05;2.88;;;0.90;;
72951;SDS011;61102;51.956;5.878;2022-11-11T13:34:04;2.92;;;0.90;;
72951;SDS011;61102;51.956;5.878;2022-11-11T13:36:54;1.88;;;0.70;;
72951;SDS011;61102;51.956;5.878;2022-11-11T13:39:45;2.42;;;0.60;;
72951;SDS011;61102;51.956;5.878;2022-11-11T13:42:41;3.40;;;0.70;;
72951;SDS011;61102;51.956;5.878;2022-11-11T13:45:35;2.25;;;0.60;;
72951;SDS011;61102;51.956;5.878;2022-11-11T13:48:46;1.67;;;0.60;;
72951;SDS011;61102;51.956;5.878;2022-11-11T13:51:36;2.05;;;0.60;;
72951;SDS011;61102;51.956;5.878;2022-11-11T14:02:46;2.38;;;0.60;;
72951;SDS011;61102;51.956;5.878;2022-11-11T14:05:31;1.75;;;0.50;;
72951;SDS011;61102;51.956;5.878;2022-11-11T14:11:29;2.67;;;0.60;;
72951;SDS011;61102;51.956;5.878;2022-11-11T14:17:15;2.92;;;0.70;;
72951;SDS011;61102;51.956;5.878;2022-11-11T14:23:40;1.92;;;0.57;;
72951;SDS011;61102;51.956;5.878;2022-11-11T14:26:26;2.90;;;0.65;;
72951;SDS011;61102;51.956;5.878;2022-11-11T14:29:16;1.98;;;0.45;;
72951;SDS011;61102;51.956;5.878;2022-11-11T14:35:28;2.00;;;0.60;;
72951;SDS011;61102;51.956;5.878;2022-11-11T14:47:19;2.58;;;0.60;;
72951;SDS011;61102;51.956;5.878;2022-11-11T14:50:54;1.35;;;0.40;;
72951;SDS011;61102;51.956;5.878;2022-11-11T14:53:18;0.68;;;0.30;;
72951;SDS011;61102;51.956;5.878;2022-11-11T14:56:11;2.05;;;0.40;;
72951;SDS011;61102;51.956;5.878;2022-11-11T14:59:03;1.88;;;0.50;;
72951;SDS011;61102;51.956;5.878;2022-11-11T15:01:50;1.95;;;0.50;;
72951;SDS011;61102;51.956;5.878;2022-11-11T15:04:37;1.92;;;0.50;;
72951;SDS011;61102;51.956;5.878;2022-11-11T15:10:35;1.70;;;0.40;;
72951;SDS011;61102;51.956;5.878;2022-11-11T15:25:54;1.20;;;0.40;;
72951;SDS011;61102;51.956;5.878;2022-11-11T15:28:52;1.20;;;0.32;;
72951;SDS011;61102;51.956;5.878;2022-11-11T15:31:48;1.38;;;0.40;;
72951;SDS011;61102;51.956;5.878;2022-11-11T15:34:44;1.05;;;0.32;;
72951;SDS011;61102;51.956;5.878;2022-11-11T15:37:41;1.05;;;0.30;;
72951;SDS011;61102;51.956;5.878;2022-11-11T15:40:48;1.67;;;0.50;;
72951;SDS011;61102;51.956;5.878;2022-11-11T15:43:34;0.95;;;0.40;;
72951;SDS011;61102;51.956;5.878;2022-11-11T15:46:23;0.30;;;0.30;;
72951;SDS011;61102;51.956;5.878;2022-11-11T15:49:55;3.67;;;0.40;;
72951;SDS011;61102;51.956;5.878;2022-11-11T15:55:22;1.65;;;0.50;;
72951;SDS011;61102;51.956;5.878;2022-11-11T16:01:10;1.70;;;0.50;;
72951;SDS011;61102;51.956;5.878;2022-11-11T16:03:56;1.77;;;0.55;;
72951;SDS011;61102;51.956;5.878;2022-11-11T16:06:41;1.48;;;0.52;;
72951;SDS011;61102;51.956;5.878;2022-11-11T16:09:26;2.55;;;0.57;;
72951;SDS011;61102;51.956;5.878;2022-11-11T16:12:15;2.22;;;0.60;;
72951;SDS011;61102;51.956;5.878;2022-11-11T16:15:04;1.70;;;0.57;;
72951;SDS011;61102;51.956;5.878;2022-11-11T16:17:53;1.55;;;0.50;;
72951;SDS011;61102;51.956;5.878;2022-11-11T16:20:44;2.35;;;0.70;;
72951;SDS011;61102;51.956;5.878;2022-11-11T16:23:51;3.20;;;0.90;;
72951;SDS011;61102;51.956;5.878;2022-11-11T16:26:36;3.47;;;0.90;;
72951;SDS011;61102;51.956;5.878;2022-11-11T16:29:21;2.70;;;0.70;;
72951;SDS011;61102;51.956;5.878;2022-11-11T16:35:23;3.08;;;0.80;;
72951;SDS011;61102;51.956;5.878;2022-11-11T16:38:11;2.97;;;0.80;;
72951;SDS011;61102;51.956;5.878;2022-11-11T16:41:26;2.95;;;0.95;;
72951;SDS011;61102;51.956;5.878;2022-11-11T16:50:19;3.97;;;1.02;;
72951;SDS011;61102;51.956;5.878;2022-11-11T16:53:06;3.08;;;1.05;;
72951;SDS011;61102;51.956;5.878;2022-11-11T16:55:52;4.15;;;1.10;;
72951;SDS011;61102;51.956;5.878;2022-11-11T16:58:37;5.05;;;1.30;;
72951;SDS011;61102;51.956;5.878;2022-11-11T17:01:25;4.38;;;1.30;;
72951;SDS011;61102;51.956;5.878;2022-11-11T17:04:13;5.70;;;1.75;;
72951;SDS011;61102;51.956;5.878;2022-11-11T17:06:58;6.57;;;2.17;;
72951;SDS011;61102;51.956;5.878;2022-11-11T17:09:43;7.40;;;1.80;;
72951;SDS011;61102;51.956;5.878;2022-11-11T17:12:28;5.32;;;1.63;;
72951;SDS011;61102;51.956;5.878;2022-11-11T17:15:15;6.47;;;1.75;;
72951;SDS011;61102;51.956;5.878;2022-11-11T17:18:02;5.53;;;1.55;;
72951;SDS011;61102;51.956;5.878;2022-11-11T17:20:47;6.32;;;1.60;;
72951;SDS011;61102;51.956;5.878;2022-11-11T17:23:32;5.03;;;1.40;;
72951;SDS011;61102;51.956;5.878;2022-11-11T17:26:17;6.88;;;1.67;;
72951;SDS011;61102;51.956;5.878;2022-11-11T17:29:01;5.07;;;1.25;;
72951;SDS011;61102;51.956;5.878;2022-11-11T17:31:46;5.32;;;1.27;;
72951;SDS011;61102;51.956;5.878;2022-11-11T17:34:30;4.50;;;1.33;;
72951;SDS011;61102;51.956;5.878;2022-11-11T17:37:15;4.78;;;1.23;;
72951;SDS011;61102;51.956;5.878;2022-11-11T17:40:00;4.10;;;1.23;;
72951;SDS011;61102;51.956;5.878;2022-11-11T17:42:44;4.13;;;1.27;;
72951;SDS011;61102;51.956;5.878;2022-11-11T17:45:29;5.70;;;1.60;;
72951;SDS011;61102;51.956;5.878;2022-11-11T17:48:14;4.85;;;1.40;;
72951;SDS011;61102;51.956;5.878;2022-11-11T17:51:02;5.13;;;1.55;;
72951;SDS011;61102;51.956;5.878;2022-11-11T17:53:49;5.45;;;1.50;;
72951;SDS011;61102;51.956;5.878;2022-11-11T17:56:34;5.32;;;1.73;;
72951;SDS011;61102;51.956;5.878;2022-11-11T17:59:19;5.30;;;1.38;;
72951;SDS011;61102;51.956;5.878;2022-11-11T18:02:04;5.97;;;1.63;;
72951;SDS011;61102;51.956;5.878;2022-11-11T18:04:48;5.72;;;1.60;;
72951;SDS011;61102;51.956;5.878;2022-11-11T18:07:33;6.85;;;2.28;;
72951;SDS011;61102;51.956;5.878;2022-11-11T18:10:18;5.40;;;1.60;;
72951;SDS011;61102;51.956;5.878;2022-11-11T18:13:05;6.78;;;1.60;;
72951;SDS011;61102;51.956;5.878;2022-11-11T18:15:50;6.82;;;1.98;;
72951;SDS011;61102;51.956;5.878;2022-11-11T18:18:35;5.93;;;1.70;;
72951;SDS011;61102;51.956;5.878;2022-11-11T18:21:23;5.50;;;1.50;;
72951;SDS011;61102;51.956;5.878;2022-11-11T18:24:08;3.92;;;1.15;;
72951;SDS011;61102;51.956;5.878;2022-11-11T18:26:54;4.55;;;1.25;;
72951;SDS011;61102;51.956;5.878;2022-11-11T18:29:39;6.07;;;1.50;;
72951;SDS011;61102;51.956;5.878;2022-11-11T18:32:24;6.65;;;1.65;;
72951;SDS011;61102;51.956;5.878;2022-11-11T18:35:08;5.82;;;1.63;;
72951;SDS011;61102;51.956;5.878;2022-11-11T18:37:54;5.88;;;1.83;;
72951;SDS011;61102;51.956;5.878;2022-11-11T18:40:38;4.97;;;1.65;;
72951;SDS011;61102;51.956;5.878;2022-11-11T18:43:22;5.70;;;1.60;;
72951;SDS011;61102;51.956;5.878;2022-11-11T18:46:07;6.80;;;1.73;;
72951;SDS011;61102;51.956;5.878;2022-11-11T18:49:00;4.07;;;1.25;;
72951;SDS011;61102;51.956;5.878;2022-11-11T18:51:46;5.20;;;1.30;;
72951;SDS011;61102;51.956;5.878;2022-11-11T18:54:33;4.72;;;1.40;;
72951;SDS011;61102;51.956;5.878;2022-11-11T18:57:18;5.00;;;1.23;;
72951;SDS011;61102;51.956;5.878;2022-11-11T19:00:03;6.22;;;1.90;;
72951;SDS011;61102;51.956;5.878;2022-11-11T19:02:48;6.63;;;1.30;;
72951;SDS011;61102;51.956;5.878;2022-11-11T19:05:32;3.92;;;1.13;;
72951;SDS011;61102;51.956;5.878;2022-11-11T19:08:17;6.50;;;2.00;;
72951;SDS011;61102;51.956;5.878;2022-11-11T19:11:01;8.13;;;1.77;;
72951;SDS011;61102;51.956;5.878;2022-11-11T19:13:47;5.45;;;1.38;;
72951;SDS011;61102;51.956;5.878;2022-11-11T19:16:32;4.35;;;1.30;;
72951;SDS011;61102;51.956;5.878;2022-11-11T19:19:17;4.43;;;1.38;;
72951;SDS011;61102;51.956;5.878;2022-11-11T19:22:02;4.00;;;1.30;;
72951;SDS011;61102;51.956;5.878;2022-11-11T19:24:46;5.43;;;1.52;;
72951;SDS011;61102;51.956;5.878;2022-11-11T19:27:30;4.38;;;1.38;;
72951;SDS011;61102;51.956;5.878;2022-11-11T19:30:15;5.30;;;1.60;;
72951;SDS011;61102;51.956;5.878;2022-11-11T19:32:59;5.35;;;1.48;;
72951;SDS011;61102;51.956;5.878;2022-11-11T19:35:53;5.47;;;1.40;;
72951;SDS011;61102;51.956;5.878;2022-11-11T19:38:39;5.25;;;1.40;;
72951;SDS011;61102;51.956;5.878;2022-11-11T19:41:26;4.20;;;1.20;;
72951;SDS011;61102;51.956;5.878;2022-11-11T19:44:12;5.30;;;1.40;;
72951;SDS011;61102;51.956;5.878;2022-11-11T19:46:57;11.98;;;3.67;;